sensor_id;sensor_type;location;lat;lon;timestamp;P1;durP1;ratioP1;P2;durP2;ratioP2
773;SDS011;370;48.810;9.150;2022-08-19T00:01:25;14.80;;;7.87;;
773;SDS011;370;48.810;9.150;2022-08-19T00:03:54;14.07;;;6.93;;
773;SDS011;370;48.810;9.150;2022-08-19T00:06:21;14.53;;;6.80;;
773;SDS011;370;48.810;9.150;2022-08-19T00:08:47;17.03;;;7.70;;
773;SDS011;370;48.810;9.150;2022-08-19T00:11:16;16.67;;;8.40;;
773;SDS011;370;48.810;9.150;2022-08-19T00:13:45;20.70;;;7.40;;
773;SDS011;370;48.810;9.150;2022-08-19T00:16:13;17.93;;;7.37;;
773;SDS011;370;48.810;9.150;2022-08-19T00:18:40;12.90;;;6.73;;
773;SDS011;370;48.810;9.150;2022-08-19T00:21:06;15.27;;;7.90;;
773;SDS011;370;48.810;9.150;2022-08-19T00:23:34;16.30;;;8.17;;
773;SDS011;370;48.810;9.150;2022-08-19T00:29:25;13.23;;;6.27;;
773;SDS011;370;48.810;9.150;2022-08-19T00:31:52;17.10;;;7.20;;
773;SDS011;370;48.810;9.150;2022-08-19T00:34:19;15.03;;;6.83;;
773;SDS011;370;48.810;9.150;2022-08-19T00:36:47;18.87;;;6.67;;
773;SDS011;370;48.810;9.150;2022-08-19T00:39:15;20.83;;;6.70;;
773;SDS011;370;48.810;9.150;2022-08-19T00:41:42;18.70;;;7.50;;
773;SDS011;370;48.810;9.150;2022-08-19T00:44:13;22.83;;;7.00;;
773;SDS011;370;48.810;9.150;2022-08-19T00:46:47;12.67;;;6.37;;
773;SDS011;370;48.810;9.150;2022-08-19T00:49:15;12.50;;;6.33;;
773;SDS011;370;48.810;9.150;2022-08-19T00:51:47;20.17;;;8.90;;
773;SDS011;370;48.810;9.150;2022-08-19T00:54:18;16.00;;;6.63;;
773;SDS011;370;48.810;9.150;2022-08-19T00:56:46;18.63;;;7.10;;
773;SDS011;370;48.810;9.150;2022-08-19T00:59:13;11.63;;;6.57;;
773;SDS011;370;48.810;9.150;2022-08-19T01:01:41;14.00;;;7.33;;
773;SDS011;370;48.810;9.150;2022-08-19T01:04:11;15.40;;;7.60;;
773;SDS011;370;48.810;9.150;2022-08-19T01:06:38;14.03;;;6.63;;
773;SDS011;370;48.810;9.150;2022-08-19T01:09:07;17.30;;;7.70;;
773;SDS011;370;48.810;9.150;2022-08-19T01:11:35;14.90;;;6.80;;
773;SDS011;370;48.810;9.150;2022-08-19T01:14:06;25.67;;;8.27;;
773;SDS011;370;48.810;9.150;2022-08-19T01:16:34;15.20;;;7.33;;
773;SDS011;370;48.810;9.150;2022-08-19T01:19:02;23.23;;;7.00;;
773;SDS011;370;48.810;9.150;2022-08-19T01:24:53;20.43;;;8.00;;
773;SDS011;370;48.810;9.150;2022-08-19T01:27:20;21.17;;;7.53;;
773;SDS011;370;48.810;9.150;2022-08-19T01:29:46;19.83;;;8.40;;
773;SDS011;370;48.810;9.150;2022-08-19T01:32:14;18.13;;;6.73;;
773;SDS011;370;48.810;9.150;2022-08-19T01:34:42;13.00;;;7.23;;
773;SDS011;370;48.810;9.150;2022-08-19T01:37:13;18.00;;;8.00;;
773;SDS011;370;48.810;9.150;2022-08-19T01:39:40;19.90;;;8.47;;
773;SDS011;370;48.810;9.150;2022-08-19T01:42:09;13.60;;;7.17;;
773;SDS011;370;48.810;9.150;2022-08-19T01:44:37;16.50;;;8.17;;
773;SDS011;370;48.810;9.150;2022-08-19T01:47:05;16.63;;;8.10;;
773;SDS011;370;48.810;9.150;2022-08-19T01:49:35;21.70;;;7.83;;
773;SDS011;370;48.810;9.150;2022-08-19T01:52:02;20.87;;;8.23;;
773;SDS011;370;48.810;9.150;2022-08-19T01:54:29;14.73;;;8.37;;
773;SDS011;370;48.810;9.150;2022-08-19T01:56:59;19.80;;;9.40;;
773;SDS011;370;48.810;9.150;2022-08-19T01:59:30;19.37;;;8.37;;
773;SDS011;370;48.810;9.150;2022-08-19T02:01:58;15.00;;;7.60;;
773;SDS011;370;48.810;9.150;2022-08-19T02:04:25;17.63;;;7.90;;
773;SDS011;370;48.810;9.150;2022-08-19T02:06:52;17.13;;;7.73;;
773;SDS011;370;48.810;9.150;2022-08-19T02:09:18;20.77;;;7.97;;
773;SDS011;370;48.810;9.150;2022-08-19T02:11:45;13.80;;;6.93;;
773;SDS011;370;48.810;9.150;2022-08-19T02:14:12;24.27;;;8.77;;
773;SDS011;370;48.810;9.150;2022-08-19T02:16:42;18.07;;;8.60;;
773;SDS011;370;48.810;9.150;2022-08-19T02:19:09;13.80;;;7.20;;
773;SDS011;370;48.810;9.150;2022-08-19T02:21:36;18.57;;;8.23;;
773;SDS011;370;48.810;9.150;2022-08-19T02:24:03;14.17;;;7.90;;
773;SDS011;370;48.810;9.150;2022-08-19T02:26:31;23.97;;;8.60;;
773;SDS011;370;48.810;9.150;2022-08-19T02:28:58;21.20;;;9.57;;
773;SDS011;370;48.810;9.150;2022-08-19T02:31:25;18.90;;;8.37;;
773;SDS011;370;48.810;9.150;2022-08-19T02:33:54;19.90;;;9.63;;
773;SDS011;370;48.810;9.150;2022-08-19T02:36:21;20.30;;;8.20;;
773;SDS011;370;48.810;9.150;2022-08-19T02:38:49;19.80;;;8.70;;
773;SDS011;370;48.810;9.150;2022-08-19T02:41:16;19.10;;;9.13;;
773;SDS011;370;48.810;9.150;2022-08-19T02:43:44;18.13;;;8.80;;
773;SDS011;370;48.810;9.150;2022-08-19T02:46:11;26.00;;;9.63;;
773;SDS011;370;48.810;9.150;2022-08-19T02:48:40;30.17;;;10.60;;
773;SDS011;370;48.810;9.150;2022-08-19T02:51:08;22.33;;;10.00;;
773;SDS011;370;48.810;9.150;2022-08-19T02:53:42;33.80;;;10.00;;
773;SDS011;370;48.810;9.150;2022-08-19T02:56:09;27.00;;;9.93;;
773;SDS011;370;48.810;9.150;2022-08-19T02:58:36;31.13;;;10.40;;
773;SDS011;370;48.810;9.150;2022-08-19T03:01:02;23.97;;;10.83;;
773;SDS011;370;48.810;9.150;2022-08-19T03:03:29;24.07;;;9.43;;
773;SDS011;370;48.810;9.150;2022-08-19T03:06:07;19.03;;;9.30;;
773;SDS011;370;48.810;9.150;2022-08-19T03:08:38;24.17;;;9.50;;
773;SDS011;370;48.810;9.150;2022-08-19T03:11:05;22.43;;;9.73;;
773;SDS011;370;48.810;9.150;2022-08-19T03:13:37;27.77;;;9.97;;
773;SDS011;370;48.810;9.150;2022-08-19T03:16:04;24.13;;;10.93;;
773;SDS011;370;48.810;9.150;2022-08-19T03:18:31;22.27;;;9.27;;
773;SDS011;370;48.810;9.150;2022-08-19T03:20:58;26.80;;;10.13;;
773;SDS011;370;48.810;9.150;2022-08-19T03:23:26;28.63;;;11.17;;
773;SDS011;370;48.810;9.150;2022-08-19T03:25:53;23.33;;;10.57;;
773;SDS011;370;48.810;9.150;2022-08-19T03:28:20;27.10;;;11.00;;
773;SDS011;370;48.810;9.150;2022-08-19T03:30:56;17.73;;;9.17;;
773;SDS011;370;48.810;9.150;2022-08-19T03:33:24;21.60;;;9.27;;
773;SDS011;370;48.810;9.150;2022-08-19T03:36:02;27.67;;;9.63;;
773;SDS011;370;48.810;9.150;2022-08-19T03:38:33;28.67;;;10.57;;
773;SDS011;370;48.810;9.150;2022-08-19T03:41:05;20.80;;;9.50;;
773;SDS011;370;48.810;9.150;2022-08-19T03:43:34;24.97;;;11.47;;
773;SDS011;370;48.810;9.150;2022-08-19T03:46:03;23.40;;;10.60;;
773;SDS011;370;48.810;9.150;2022-08-19T03:48:31;33.30;;;12.00;;
773;SDS011;370;48.810;9.150;2022-08-19T03:50:58;27.97;;;11.07;;
773;SDS011;370;48.810;9.150;2022-08-19T03:53:25;29.50;;;12.37;;
773;SDS011;370;48.810;9.150;2022-08-19T03:55:54;23.87;;;9.87;;
773;SDS011;370;48.810;9.150;2022-08-19T03:58:22;31.77;;;12.77;;
773;SDS011;370;48.810;9.150;2022-08-19T04:00:49;29.00;;;11.60;;
773;SDS011;370;48.810;9.150;2022-08-19T04:03:16;23.97;;;10.20;;
773;SDS011;370;48.810;9.150;2022-08-19T04:05:44;26.57;;;10.53;;
773;SDS011;370;48.810;9.150;2022-08-19T04:08:11;35.07;;;12.70;;
773;SDS011;370;48.810;9.150;2022-08-19T04:10:44;30.60;;;11.33;;
773;SDS011;370;48.810;9.150;2022-08-19T04:13:12;25.53;;;12.17;;
773;SDS011;370;48.810;9.150;2022-08-19T04:15:39;20.23;;;10.37;;
773;SDS011;370;48.810;9.150;2022-08-19T04:18:07;23.70;;;11.70;;
773;SDS011;370;48.810;9.150;2022-08-19T04:20:38;26.10;;;11.73;;
773;SDS011;370;48.810;9.150;2022-08-19T04:23:05;29.37;;;12.30;;
773;SDS011;370;48.810;9.150;2022-08-19T04:25:34;27.03;;;12.07;;
773;SDS011;370;48.810;9.150;2022-08-19T04:28:03;29.80;;;12.57;;
773;SDS011;370;48.810;9.150;2022-08-19T04:30:36;29.13;;;12.53;;
773;SDS011;370;48.810;9.150;2022-08-19T04:33:04;32.33;;;11.40;;
773;SDS011;370;48.810;9.150;2022-08-19T04:35:34;30.50;;;11.53;;
773;SDS011;370;48.810;9.150;2022-08-19T04:38:02;27.67;;;11.90;;
773;SDS011;370;48.810;9.150;2022-08-19T04:40:29;35.50;;;12.97;;
773;SDS011;370;48.810;9.150;2022-08-19T04:43:14;28.37;;;12.17;;
773;SDS011;370;48.810;9.150;2022-08-19T04:45:42;28.60;;;12.63;;
773;SDS011;370;48.810;9.150;2022-08-19T04:48:09;28.90;;;10.93;;
773;SDS011;370;48.810;9.150;2022-08-19T04:50:39;28.23;;;11.13;;
773;SDS011;370;48.810;9.150;2022-08-19T04:53:07;21.20;;;11.37;;
773;SDS011;370;48.810;9.150;2022-08-19T04:55:34;24.43;;;10.97;;
773;SDS011;370;48.810;9.150;2022-08-19T04:58:04;28.93;;;12.20;;
773;SDS011;370;48.810;9.150;2022-08-19T05:00:31;32.53;;;12.20;;
773;SDS011;370;48.810;9.150;2022-08-19T05:02:59;25.50;;;12.10;;
773;SDS011;370;48.810;9.150;2022-08-19T05:05:27;27.33;;;10.80;;
773;SDS011;370;48.810;9.150;2022-08-19T05:07:53;30.53;;;12.40;;
773;SDS011;370;48.810;9.150;2022-08-19T05:10:20;29.33;;;12.13;;
773;SDS011;370;48.810;9.150;2022-08-19T05:12:47;23.63;;;11.00;;
773;SDS011;370;48.810;9.150;2022-08-19T05:15:14;26.30;;;11.30;;
773;SDS011;370;48.810;9.150;2022-08-19T05:17:41;29.87;;;13.50;;
773;SDS011;370;48.810;9.150;2022-08-19T05:20:29;27.97;;;12.87;;
773;SDS011;370;48.810;9.150;2022-08-19T05:23:13;28.40;;;12.50;;
773;SDS011;370;48.810;9.150;2022-08-19T05:25:42;28.80;;;12.40;;
773;SDS011;370;48.810;9.150;2022-08-19T05:28:09;28.13;;;12.37;;
773;SDS011;370;48.810;9.150;2022-08-19T05:30:36;28.63;;;12.00;;
773;SDS011;370;48.810;9.150;2022-08-19T05:33:02;29.40;;;13.60;;
773;SDS011;370;48.810;9.150;2022-08-19T05:35:31;26.53;;;11.63;;
773;SDS011;370;48.810;9.150;2022-08-19T05:37:57;21.10;;;10.40;;
773;SDS011;370;48.810;9.150;2022-08-19T05:40:24;24.23;;;11.70;;
773;SDS011;370;48.810;9.150;2022-08-19T05:42:51;27.40;;;11.60;;
773;SDS011;370;48.810;9.150;2022-08-19T05:45:18;27.50;;;12.10;;
773;SDS011;370;48.810;9.150;2022-08-19T05:47:46;26.07;;;12.13;;
773;SDS011;370;48.810;9.150;2022-08-19T05:50:13;30.90;;;12.97;;
773;SDS011;370;48.810;9.150;2022-08-19T05:52:41;25.13;;;11.43;;
773;SDS011;370;48.810;9.150;2022-08-19T05:55:08;30.50;;;12.57;;
773;SDS011;370;48.810;9.150;2022-08-19T05:57:35;27.50;;;11.63;;
773;SDS011;370;48.810;9.150;2022-08-19T06:00:03;21.30;;;11.10;;
773;SDS011;370;48.810;9.150;2022-08-19T06:02:33;27.83;;;12.67;;
773;SDS011;370;48.810;9.150;2022-08-19T06:05:18;26.20;;;13.27;;
773;SDS011;370;48.810;9.150;2022-08-19T06:07:47;26.13;;;12.13;;
773;SDS011;370;48.810;9.150;2022-08-19T06:10:13;31.20;;;11.90;;
773;SDS011;370;48.810;9.150;2022-08-19T06:12:40;28.53;;;10.70;;
773;SDS011;370;48.810;9.150;2022-08-19T06:15:08;30.40;;;12.90;;
773;SDS011;370;48.810;9.150;2022-08-19T06:17:38;25.50;;;12.40;;
773;SDS011;370;48.810;9.150;2022-08-19T06:20:07;24.93;;;11.53;;
773;SDS011;370;48.810;9.150;2022-08-19T06:22:38;32.33;;;11.90;;
773;SDS011;370;48.810;9.150;2022-08-19T06:25:08;30.07;;;12.90;;
773;SDS011;370;48.810;9.150;2022-08-19T06:27:35;21.83;;;10.47;;
773;SDS011;370;48.810;9.150;2022-08-19T06:30:02;27.50;;;12.33;;
773;SDS011;370;48.810;9.150;2022-08-19T06:32:29;28.93;;;11.90;;
773;SDS011;370;48.810;9.150;2022-08-19T06:34:56;22.50;;;11.60;;
773;SDS011;370;48.810;9.150;2022-08-19T06:37:23;29.33;;;13.60;;
773;SDS011;370;48.810;9.150;2022-08-19T06:39:51;26.30;;;12.07;;
773;SDS011;370;48.810;9.150;2022-08-19T06:42:19;25.50;;;10.80;;
773;SDS011;370;48.810;9.150;2022-08-19T06:44:47;31.00;;;12.90;;
773;SDS011;370;48.810;9.150;2022-08-19T06:47:16;28.83;;;11.60;;
773;SDS011;370;48.810;9.150;2022-08-19T06:49:43;27.10;;;11.90;;
773;SDS011;370;48.810;9.150;2022-08-19T06:52:11;23.70;;;11.07;;
773;SDS011;370;48.810;9.150;2022-08-19T06:54:38;25.93;;;11.67;;
773;SDS011;370;48.810;9.150;2022-08-19T06:57:06;27.13;;;11.17;;
773;SDS011;370;48.810;9.150;2022-08-19T06:59:35;20.80;;;10.80;;
773;SDS011;370;48.810;9.150;2022-08-19T07:02:03;23.57;;;11.10;;
773;SDS011;370;48.810;9.150;2022-08-19T07:04:31;28.30;;;11.70;;
773;SDS011;370;48.810;9.150;2022-08-19T07:07:00;27.17;;;10.73;;
773;SDS011;370;48.810;9.150;2022-08-19T07:09:31;29.43;;;10.77;;
773;SDS011;370;48.810;9.150;2022-08-19T07:11:58;24.70;;;10.87;;
773;SDS011;370;48.810;9.150;2022-08-19T07:14:26;21.80;;;10.07;;
773;SDS011;370;48.810;9.150;2022-08-19T07:16:55;23.33;;;11.13;;
773;SDS011;370;48.810;9.150;2022-08-19T07:19:23;24.37;;;12.20;;
773;SDS011;370;48.810;9.150;2022-08-19T07:21:52;24.60;;;11.10;;
773;SDS011;370;48.810;9.150;2022-08-19T07:24:20;23.97;;;10.77;;
773;SDS011;370;48.810;9.150;2022-08-19T07:26:48;28.73;;;11.13;;
773;SDS011;370;48.810;9.150;2022-08-19T07:29:16;26.57;;;10.37;;
773;SDS011;370;48.810;9.150;2022-08-19T07:31:48;29.60;;;10.80;;
773;SDS011;370;48.810;9.150;2022-08-19T07:34:16;31.40;;;12.23;;
773;SDS011;370;48.810;9.150;2022-08-19T07:36:43;22.23;;;10.20;;
773;SDS011;370;48.810;9.150;2022-08-19T07:39:12;26.50;;;10.10;;
773;SDS011;370;48.810;9.150;2022-08-19T07:41:41;18.17;;;9.23;;
773;SDS011;370;48.810;9.150;2022-08-19T07:44:08;24.00;;;12.50;;
773;SDS011;370;48.810;9.150;2022-08-19T07:46:36;21.93;;;9.47;;
773;SDS011;370;48.810;9.150;2022-08-19T07:49:04;26.97;;;11.10;;
773;SDS011;370;48.810;9.150;2022-08-19T07:51:34;27.60;;;10.33;;
773;SDS011;370;48.810;9.150;2022-08-19T07:54:01;31.60;;;10.33;;
773;SDS011;370;48.810;9.150;2022-08-19T07:56:29;25.10;;;10.40;;
773;SDS011;370;48.810;9.150;2022-08-19T07:58:56;26.80;;;11.20;;
773;SDS011;370;48.810;9.150;2022-08-19T08:01:23;18.10;;;9.40;;
773;SDS011;370;48.810;9.150;2022-08-19T08:03:53;28.73;;;12.27;;
773;SDS011;370;48.810;9.150;2022-08-19T08:06:40;27.00;;;9.33;;
773;SDS011;370;48.810;9.150;2022-08-19T08:09:25;20.63;;;9.40;;
773;SDS011;370;48.810;9.150;2022-08-19T08:11:54;23.77;;;10.77;;
773;SDS011;370;48.810;9.150;2022-08-19T08:14:25;19.77;;;9.70;;
773;SDS011;370;48.810;9.150;2022-08-19T08:16:55;22.50;;;9.67;;
773;SDS011;370;48.810;9.150;2022-08-19T08:19:23;28.13;;;11.70;;
773;SDS011;370;48.810;9.150;2022-08-19T08:21:53;24.13;;;10.07;;
773;SDS011;370;48.810;9.150;2022-08-19T08:24:20;24.93;;;10.90;;
773;SDS011;370;48.810;9.150;2022-08-19T08:26:47;22.53;;;10.03;;
773;SDS011;370;48.810;9.150;2022-08-19T08:29:14;24.57;;;8.60;;
773;SDS011;370;48.810;9.150;2022-08-19T08:31:42;26.00;;;11.10;;
773;SDS011;370;48.810;9.150;2022-08-19T08:34:10;21.57;;;9.70;;
773;SDS011;370;48.810;9.150;2022-08-19T08:36:39;18.60;;;9.47;;
773;SDS011;370;48.810;9.150;2022-08-19T08:39:11;23.80;;;10.50;;
773;SDS011;370;48.810;9.150;2022-08-19T08:41:41;28.10;;;9.73;;
773;SDS011;370;48.810;9.150;2022-08-19T08:44:14;27.33;;;9.33;;
773;SDS011;370;48.810;9.150;2022-08-19T08:46:45;19.50;;;9.97;;
773;SDS011;370;48.810;9.150;2022-08-19T08:49:17;23.70;;;9.90;;
773;SDS011;370;48.810;9.150;2022-08-19T08:51:56;22.77;;;9.80;;
773;SDS011;370;48.810;9.150;2022-08-19T08:54:30;22.30;;;9.67;;
773;SDS011;370;48.810;9.150;2022-08-19T08:57:02;22.00;;;8.87;;
773;SDS011;370;48.810;9.150;2022-08-19T08:59:33;17.13;;;7.70;;
773;SDS011;370;48.810;9.150;2022-08-19T09:02:02;23.10;;;9.40;;
773;SDS011;370;48.810;9.150;2022-08-19T09:04:29;20.13;;;9.30;;
773;SDS011;370;48.810;9.150;2022-08-19T09:07:07;22.13;;;9.73;;
773;SDS011;370;48.810;9.150;2022-08-19T09:09:50;28.93;;;10.00;;
773;SDS011;370;48.810;9.150;2022-08-19T09:12:19;20.20;;;8.57;;
773;SDS011;370;48.810;9.150;2022-08-19T09:14:52;24.13;;;9.97;;
773;SDS011;370;48.810;9.150;2022-08-19T09:17:22;22.00;;;8.70;;
773;SDS011;370;48.810;9.150;2022-08-19T09:19:54;27.83;;;9.50;;
773;SDS011;370;48.810;9.150;2022-08-19T09:22:23;18.80;;;9.97;;
773;SDS011;370;48.810;9.150;2022-08-19T09:24:53;16.40;;;8.77;;
773;SDS011;370;48.810;9.150;2022-08-19T09:27:20;34.13;;;9.70;;
773;SDS011;370;48.810;9.150;2022-08-19T09:29:50;21.73;;;9.80;;
773;SDS011;370;48.810;9.150;2022-08-19T09:32:17;21.93;;;8.50;;
773;SDS011;370;48.810;9.150;2022-08-19T09:34:44;19.37;;;8.77;;
773;SDS011;370;48.810;9.150;2022-08-19T09:37:12;17.50;;;8.50;;
773;SDS011;370;48.810;9.150;2022-08-19T09:39:39;17.53;;;9.10;;
773;SDS011;370;48.810;9.150;2022-08-19T09:42:09;16.53;;;8.33;;
773;SDS011;370;48.810;9.150;2022-08-19T09:44:37;18.60;;;8.57;;
773;SDS011;370;48.810;9.150;2022-08-19T09:47:04;12.67;;;7.77;;
773;SDS011;370;48.810;9.150;2022-08-19T09:49:31;18.10;;;8.53;;
773;SDS011;370;48.810;9.150;2022-08-19T09:51:59;29.70;;;7.73;;
773;SDS011;370;48.810;9.150;2022-08-19T09:54:26;20.47;;;8.43;;
773;SDS011;370;48.810;9.150;2022-08-19T09:56:54;21.90;;;8.43;;
773;SDS011;370;48.810;9.150;2022-08-19T09:59:23;14.53;;;8.60;;
773;SDS011;370;48.810;9.150;2022-08-19T10:01:49;13.87;;;7.70;;
773;SDS011;370;48.810;9.150;2022-08-19T10:04:17;12.47;;;7.10;;
773;SDS011;370;48.810;9.150;2022-08-19T10:06:44;18.17;;;7.03;;
773;SDS011;370;48.810;9.150;2022-08-19T10:09:12;18.83;;;9.03;;
773;SDS011;370;48.810;9.150;2022-08-19T10:11:42;17.97;;;7.63;;
773;SDS011;370;48.810;9.150;2022-08-19T10:14:11;16.77;;;7.10;;
773;SDS011;370;48.810;9.150;2022-08-19T10:16:39;23.63;;;7.93;;
773;SDS011;370;48.810;9.150;2022-08-19T10:19:07;15.50;;;6.97;;
773;SDS011;370;48.810;9.150;2022-08-19T10:21:34;15.83;;;6.60;;
773;SDS011;370;48.810;9.150;2022-08-19T10:24:03;13.20;;;6.77;;
773;SDS011;370;48.810;9.150;2022-08-19T10:26:39;11.63;;;6.57;;
773;SDS011;370;48.810;9.150;2022-08-19T10:29:10;12.50;;;7.07;;
773;SDS011;370;48.810;9.150;2022-08-19T10:31:37;12.43;;;7.07;;
773;SDS011;370;48.810;9.150;2022-08-19T10:34:05;10.13;;;6.20;;
773;SDS011;370;48.810;9.150;2022-08-19T10:36:35;10.60;;;6.13;;
773;SDS011;370;48.810;9.150;2022-08-19T10:39:05;15.47;;;7.40;;
773;SDS011;370;48.810;9.150;2022-08-19T10:41:34;13.60;;;6.50;;
773;SDS011;370;48.810;9.150;2022-08-19T10:44:04;10.47;;;5.90;;
773;SDS011;370;48.810;9.150;2022-08-19T10:46:33;17.83;;;7.23;;
773;SDS011;370;48.810;9.150;2022-08-19T10:49:04;19.97;;;7.07;;
773;SDS011;370;48.810;9.150;2022-08-19T10:51:31;18.70;;;6.30;;
773;SDS011;370;48.810;9.150;2022-08-19T10:54:17;9.07;;;5.80;;
773;SDS011;370;48.810;9.150;2022-08-19T10:56:44;11.27;;;6.17;;
773;SDS011;370;48.810;9.150;2022-08-19T10:59:16;20.13;;;6.10;;
773;SDS011;370;48.810;9.150;2022-08-19T11:01:46;10.97;;;5.07;;
773;SDS011;370;48.810;9.150;2022-08-19T11:04:14;9.77;;;5.73;;
773;SDS011;370;48.810;9.150;2022-08-19T11:06:43;11.13;;;5.83;;
773;SDS011;370;48.810;9.150;2022-08-19T11:09:12;9.50;;;5.50;;
773;SDS011;370;48.810;9.150;2022-08-19T11:11:40;10.80;;;5.90;;
773;SDS011;370;48.810;9.150;2022-08-19T11:14:07;10.50;;;5.70;;
773;SDS011;370;48.810;9.150;2022-08-19T11:16:35;12.47;;;5.20;;
773;SDS011;370;48.810;9.150;2022-08-19T11:19:04;9.00;;;5.30;;
773;SDS011;370;48.810;9.150;2022-08-19T11:21:34;34.90;;;5.47;;
773;SDS011;370;48.810;9.150;2022-08-19T11:24:07;10.13;;;6.40;;
773;SDS011;370;48.810;9.150;2022-08-19T11:26:35;7.50;;;5.00;;
773;SDS011;370;48.810;9.150;2022-08-19T11:29:03;8.20;;;5.40;;
773;SDS011;370;48.810;9.150;2022-08-19T11:31:36;11.80;;;5.50;;
773;SDS011;370;48.810;9.150;2022-08-19T11:34:04;8.10;;;5.00;;
773;SDS011;370;48.810;9.150;2022-08-19T11:36:36;9.93;;;5.40;;
773;SDS011;370;48.810;9.150;2022-08-19T11:39:04;11.23;;;5.33;;
773;SDS011;370;48.810;9.150;2022-08-19T11:41:32;12.20;;;6.13;;
773;SDS011;370;48.810;9.150;2022-08-19T11:43:59;12.60;;;6.03;;
773;SDS011;370;48.810;9.150;2022-08-19T11:46:28;10.80;;;5.67;;
773;SDS011;370;48.810;9.150;2022-08-19T11:48:55;8.80;;;5.93;;
773;SDS011;370;48.810;9.150;2022-08-19T11:51:23;13.07;;;6.00;;
773;SDS011;370;48.810;9.150;2022-08-19T11:53:52;8.87;;;5.17;;
773;SDS011;370;48.810;9.150;2022-08-19T11:56:19;12.03;;;5.50;;
773;SDS011;370;48.810;9.150;2022-08-19T11:58:48;10.10;;;5.33;;
773;SDS011;370;48.810;9.150;2022-08-19T12:01:16;12.60;;;5.57;;
773;SDS011;370;48.810;9.150;2022-08-19T12:03:45;7.70;;;5.30;;
773;SDS011;370;48.810;9.150;2022-08-19T12:06:14;28.13;;;7.03;;
773;SDS011;370;48.810;9.150;2022-08-19T12:08:42;9.97;;;5.50;;
773;SDS011;370;48.810;9.150;2022-08-19T12:11:12;9.90;;;6.10;;
773;SDS011;370;48.810;9.150;2022-08-19T12:13:39;10.50;;;4.87;;
773;SDS011;370;48.810;9.150;2022-08-19T12:16:11;9.17;;;5.77;;
773;SDS011;370;48.810;9.150;2022-08-19T12:18:40;7.97;;;5.37;;
773;SDS011;370;48.810;9.150;2022-08-19T12:21:11;10.10;;;4.87;;
773;SDS011;370;48.810;9.150;2022-08-19T12:23:38;9.67;;;6.57;;
773;SDS011;370;48.810;9.150;2022-08-19T12:26:05;8.70;;;5.70;;
773;SDS011;370;48.810;9.150;2022-08-19T12:28:34;11.57;;;5.83;;
773;SDS011;370;48.810;9.150;2022-08-19T12:31:01;9.93;;;5.33;;
773;SDS011;370;48.810;9.150;2022-08-19T12:33:27;6.80;;;4.90;;
773;SDS011;370;48.810;9.150;2022-08-19T12:35:54;8.23;;;5.10;;
773;SDS011;370;48.810;9.150;2022-08-19T12:38:25;10.50;;;5.97;;
773;SDS011;370;48.810;9.150;2022-08-19T12:40:52;6.80;;;4.90;;
773;SDS011;370;48.810;9.150;2022-08-19T12:43:19;10.37;;;4.90;;
773;SDS011;370;48.810;9.150;2022-08-19T12:45:48;9.87;;;4.67;;
773;SDS011;370;48.810;9.150;2022-08-19T12:48:15;13.70;;;5.10;;
773;SDS011;370;48.810;9.150;2022-08-19T12:50:43;6.57;;;4.20;;
773;SDS011;370;48.810;9.150;2022-08-19T12:53:11;8.57;;;5.57;;
773;SDS011;370;48.810;9.150;2022-08-19T12:55:38;18.70;;;6.40;;
773;SDS011;370;48.810;9.150;2022-08-19T12:58:06;18.33;;;5.37;;
773;SDS011;370;48.810;9.150;2022-08-19T13:00:32;7.43;;;4.70;;
773;SDS011;370;48.810;9.150;2022-08-19T13:03:00;9.93;;;4.90;;
773;SDS011;370;48.810;9.150;2022-08-19T13:05:28;8.33;;;4.47;;
773;SDS011;370;48.810;9.150;2022-08-19T13:07:57;8.13;;;5.23;;
773;SDS011;370;48.810;9.150;2022-08-19T13:10:25;15.03;;;5.30;;
773;SDS011;370;48.810;9.150;2022-08-19T13:12:53;9.07;;;5.53;;
773;SDS011;370;48.810;9.150;2022-08-19T13:15:21;8.40;;;5.30;;
773;SDS011;370;48.810;9.150;2022-08-19T13:17:49;12.87;;;6.27;;
773;SDS011;370;48.810;9.150;2022-08-19T13:20:20;9.33;;;5.50;;
773;SDS011;370;48.810;9.150;2022-08-19T13:22:47;11.37;;;6.30;;
773;SDS011;370;48.810;9.150;2022-08-19T13:25:15;12.17;;;6.33;;
773;SDS011;370;48.810;9.150;2022-08-19T13:27:44;14.20;;;6.60;;
773;SDS011;370;48.810;9.150;2022-08-19T13:30:12;10.97;;;6.03;;
773;SDS011;370;48.810;9.150;2022-08-19T13:32:58;8.97;;;5.80;;
773;SDS011;370;48.810;9.150;2022-08-19T13:35:38;13.30;;;7.10;;
773;SDS011;370;48.810;9.150;2022-08-19T13:38:07;23.70;;;7.10;;
773;SDS011;370;48.810;9.150;2022-08-19T13:40:34;15.40;;;8.43;;
773;SDS011;370;48.810;9.150;2022-08-19T13:43:01;15.10;;;7.00;;
773;SDS011;370;48.810;9.150;2022-08-19T13:45:31;18.73;;;8.77;;
773;SDS011;370;48.810;9.150;2022-08-19T13:48:00;15.80;;;8.43;;
773;SDS011;370;48.810;9.150;2022-08-19T13:50:31;14.73;;;9.37;;
773;SDS011;370;48.810;9.150;2022-08-19T13:53:00;20.87;;;9.30;;
773;SDS011;370;48.810;9.150;2022-08-19T13:55:29;20.07;;;10.47;;
773;SDS011;370;48.810;9.150;2022-08-19T13:57:57;22.37;;;9.37;;
773;SDS011;370;48.810;9.150;2022-08-19T14:00:28;30.30;;;10.47;;
773;SDS011;370;48.810;9.150;2022-08-19T14:02:56;21.57;;;10.93;;
773;SDS011;370;48.810;9.150;2022-08-19T14:05:24;22.90;;;10.47;;
773;SDS011;370;48.810;9.150;2022-08-19T14:07:52;25.07;;;11.33;;
773;SDS011;370;48.810;9.150;2022-08-19T14:10:20;23.30;;;11.13;;
773;SDS011;370;48.810;9.150;2022-08-19T14:12:48;26.63;;;11.37;;
773;SDS011;370;48.810;9.150;2022-08-19T14:15:15;25.90;;;12.20;;
773;SDS011;370;48.810;9.150;2022-08-19T14:17:42;32.80;;;12.50;;
773;SDS011;370;48.810;9.150;2022-08-19T14:20:12;22.83;;;10.90;;
773;SDS011;370;48.810;9.150;2022-08-19T14:22:40;19.97;;;10.30;;
773;SDS011;370;48.810;9.150;2022-08-19T14:25:09;25.20;;;11.10;;
773;SDS011;370;48.810;9.150;2022-08-19T14:27:41;26.40;;;10.90;;
773;SDS011;370;48.810;9.150;2022-08-19T14:30:08;25.40;;;10.33;;
773;SDS011;370;48.810;9.150;2022-08-19T14:32:36;33.20;;;11.13;;
773;SDS011;370;48.810;9.150;2022-08-19T14:35:04;28.93;;;10.90;;
773;SDS011;370;48.810;9.150;2022-08-19T14:37:32;29.70;;;10.73;;
773;SDS011;370;48.810;9.150;2022-08-19T14:39:59;18.93;;;10.03;;
773;SDS011;370;48.810;9.150;2022-08-19T14:42:26;22.33;;;10.20;;
773;SDS011;370;48.810;9.150;2022-08-19T14:44:54;19.73;;;9.93;;
773;SDS011;370;48.810;9.150;2022-08-19T14:47:23;20.17;;;9.83;;
773;SDS011;370;48.810;9.150;2022-08-19T14:49:50;19.27;;;8.80;;
773;SDS011;370;48.810;9.150;2022-08-19T14:52:17;20.13;;;9.80;;
773;SDS011;370;48.810;9.150;2022-08-19T14:54:43;22.20;;;9.90;;
773;SDS011;370;48.810;9.150;2022-08-19T14:57:11;20.80;;;9.10;;
773;SDS011;370;48.810;9.150;2022-08-19T14:59:40;14.73;;;8.83;;
773;SDS011;370;48.810;9.150;2022-08-19T15:02:08;19.33;;;8.87;;
773;SDS011;370;48.810;9.150;2022-08-19T15:04:35;13.13;;;7.80;;
773;SDS011;370;48.810;9.150;2022-08-19T15:07:02;16.87;;;9.30;;
773;SDS011;370;48.810;9.150;2022-08-19T15:09:30;19.07;;;9.37;;
773;SDS011;370;48.810;9.150;2022-08-19T15:11:56;23.57;;;8.70;;
773;SDS011;370;48.810;9.150;2022-08-19T15:14:24;23.33;;;10.10;;
773;SDS011;370;48.810;9.150;2022-08-19T15:16:51;17.27;;;8.20;;
773;SDS011;370;48.810;9.150;2022-08-19T15:19:19;15.37;;;7.40;;
773;SDS011;370;48.810;9.150;2022-08-19T15:21:46;16.13;;;8.10;;
773;SDS011;370;48.810;9.150;2022-08-19T15:24:13;16.90;;;8.50;;
773;SDS011;370;48.810;9.150;2022-08-19T15:26:42;18.93;;;8.30;;
773;SDS011;370;48.810;9.150;2022-08-19T15:29:09;15.70;;;7.57;;
773;SDS011;370;48.810;9.150;2022-08-19T15:31:37;15.90;;;8.00;;
773;SDS011;370;48.810;9.150;2022-08-19T15:34:04;18.43;;;8.60;;
773;SDS011;370;48.810;9.150;2022-08-19T15:36:33;20.43;;;8.30;;
773;SDS011;370;48.810;9.150;2022-08-19T15:39:00;18.43;;;9.00;;
773;SDS011;370;48.810;9.150;2022-08-19T15:41:28;18.00;;;8.70;;